Airfield :
LOGIN :

Register | Disclaimer

   EN    FR    IT 

 










Legend :    VFR   Marginal VFR   IFR   Intensive IFR   Very Intensive IFR
Visi :
Ceiling :
>= 8 km
>= 3000ft
5 to 8 km
1000 to 3000 ft
1500m to 5 km
500 to 1000 ft
800 to 1500m
200 to 500 ft
< 800m
< 200 ft
Symbols :   Thunderstorms  Fog  Heavy snow  Heavy precipitations  Wind > 20 kt
SIGMETs :     Misc.  Thunderstorms  Icing  Turbulence  Mountain Waves  Volcanic Ashes






- Airport Elevation : 776 ft
- IATA code : RMS


ETAR - Ramstein Air Base

CURRENT METAR :
  • 070356Z AUTO 00000KT 9999 CLR 06/06 A3019 RMK AO2 SLP226 T00590059 FZRANO $

EXPIRED METARs :
  • 070256Z AUTO 00000KT 9999 CLR 06/06 A3019 RMK AO2 SLP226 T00600060 50000 FZRANO $
  • 070156Z AUTO 00000KT 9999 CLR 07/07 A3018 RMK AO2 SLP222 T00690069 FZRANO $

TAF TAF ETAR
Valid from the 07 at 02:00 until the 08 at 08:00 UTC


070200Z 0702/0808 VRB06KT 9999 FEW035 QNH3017INS
BECMG 0708/0709 23009KT 9999 SCT040 QNH3012INS
BECMG 0712/0713 28012KT 9999 BKN060 QNH3009INS
BECMG 0718/0719 VRB06KT 9999 SCT060 QNH3005INS
BECMG 0806/0807 23009KT 9999 SCT050 QNH3005INS TX20/0714Z TN05/0704Z



MET'MAP, your aeronautical weather chart ! - Copyright ORBIFLY December 2007 - Disclaimer

ORBIFLY MET'MAP TEAM :

Programming & Development : Alexandra Zaïnal
Concept & original design : Baudouin d'Aumeries
Assistance for programming : Marc-Olivier Méhu
Technical & hardware support : Manuel Goepfert

Contact : metmap@orbifly.com




SOURCES & CREDITS :

   NOAA